sensor_id;sensor_type;location;lat;lon;timestamp;temperature;humidity
4050;DHT22;2039;50.894;6.888;2022-11-11T00:01:12;8.90;99.90
4050;DHT22;2039;50.894;6.888;2022-11-11T00:03:39;8.90;99.90
4050;DHT22;2039;50.894;6.888;2022-11-11T00:06:10;8.80;99.90
4050;DHT22;2039;50.894;6.888;2022-11-11T00:08:36;8.80;99.90
4050;DHT22;2039;50.894;6.888;2022-11-11T00:11:10;8.80;99.90
4050;DHT22;2039;50.894;6.888;2022-11-11T00:13:36;8.70;99.90
4050;DHT22;2039;50.894;6.888;2022-11-11T00:16:13;8.70;99.90
4050;DHT22;2039;50.894;6.888;2022-11-11T00:18:41;8.70;99.90
4050;DHT22;2039;50.894;6.888;2022-11-11T00:21:26;8.60;99.90
4050;DHT22;2039;50.894;6.888;2022-11-11T00:24:20;8.60;99.90
4050;DHT22;2039;50.894;6.888;2022-11-11T00:27:06;8.60;99.90
4050;DHT22;2039;50.894;6.888;2022-11-11T00:29:32;8.50;99.90
4050;DHT22;2039;50.894;6.888;2022-11-11T00:31:57;8.50;99.90
4050;DHT22;2039;50.894;6.888;2022-11-11T00:34:41;8.50;99.90
4050;DHT22;2039;50.894;6.888;2022-11-11T00:37:27;8.50;99.90
4050;DHT22;2039;50.894;6.888;2022-11-11T00:39:52;8.50;99.90
4050;DHT22;2039;50.894;6.888;2022-11-11T00:42:18;8.50;99.90
4050;DHT22;2039;50.894;6.888;2022-11-11T00:44:44;8.50;99.90
4050;DHT22;2039;50.894;6.888;2022-11-11T00:47:12;8.50;99.90
4050;DHT22;2039;50.894;6.888;2022-11-11T00:49:56;8.50;99.90
4050;DHT22;2039;50.894;6.888;2022-11-11T00:52:43;8.50;99.90
4050;DHT22;2039;50.894;6.888;2022-11-11T00:55:09;8.40;99.90
4050;DHT22;2039;50.894;6.888;2022-11-11T00:57:34;8.40;99.90
4050;DHT22;2039;50.894;6.888;2022-11-11T01:00:00;8.40;99.90
4050;DHT22;2039;50.894;6.888;2022-11-11T01:02:29;8.40;99.90
4050;DHT22;2039;50.894;6.888;2022-11-11T01:04:54;8.40;99.90
4050;DHT22;2039;50.894;6.888;2022-11-11T01:07:24;8.40;99.90
4050;DHT22;2039;50.894;6.888;2022-11-11T01:09:50;8.40;99.90
4050;DHT22;2039;50.894;6.888;2022-11-11T01:12:15;8.40;99.90
4050;DHT22;2039;50.894;6.888;2022-11-11T01:14:41;8.40;99.90
4050;DHT22;2039;50.894;6.888;2022-11-11T01:17:07;8.40;99.90
4050;DHT22;2039;50.894;6.888;2022-11-11T01:19:34;8.50;99.90
4050;DHT22;2039;50.894;6.888;2022-11-11T01:22:00;8.50;99.90
4050;DHT22;2039;50.894;6.888;2022-11-11T01:24:33;8.40;99.90
4050;DHT22;2039;50.894;6.888;2022-11-11T01:26:58;8.40;99.90
4050;DHT22;2039;50.894;6.888;2022-11-11T01:29:24;8.30;99.90
4050;DHT22;2039;50.894;6.888;2022-11-11T01:31:50;8.30;99.90
4050;DHT22;2039;50.894;6.888;2022-11-11T01:34:15;8.30;99.90
4050;DHT22;2039;50.894;6.888;2022-11-11T01:36:41;8.30;99.90
4050;DHT22;2039;50.894;6.888;2022-11-11T01:39:07;8.30;99.90
4050;DHT22;2039;50.894;6.888;2022-11-11T01:41:34;8.30;99.90
4050;DHT22;2039;50.894;6.888;2022-11-11T01:52:19;8.20;99.90
4050;DHT22;2039;50.894;6.888;2022-11-11T01:54:47;8.20;99.90
4050;DHT22;2039;50.894;6.888;2022-11-11T01:57:32;8.20;99.90
4050;DHT22;2039;50.894;6.888;2022-11-11T02:00:22;8.20;99.90
4050;DHT22;2039;50.894;6.888;2022-11-11T02:02:49;8.20;99.90
4050;DHT22;2039;50.894;6.888;2022-11-11T02:05:19;8.20;99.90
4050;DHT22;2039;50.894;6.888;2022-11-11T02:08:25;8.20;99.90
4050;DHT22;2039;50.894;6.888;2022-11-11T02:11:11;8.20;99.90
4050;DHT22;2039;50.894;6.888;2022-11-11T02:13:40;8.20;99.90
4050;DHT22;2039;50.894;6.888;2022-11-11T02:16:25;8.20;99.90
4050;DHT22;2039;50.894;6.888;2022-11-11T02:18:51;8.20;99.90
4050;DHT22;2039;50.894;6.888;2022-11-11T02:21:31;8.20;99.90
4050;DHT22;2039;50.894;6.888;2022-11-11T02:24:22;8.10;99.90
4050;DHT22;2039;50.894;6.888;2022-11-11T02:26:53;8.10;99.90
4050;DHT22;2039;50.894;6.888;2022-11-11T02:29:21;8.20;99.90
4050;DHT22;2039;50.894;6.888;2022-11-11T02:31:47;8.20;99.90
4050;DHT22;2039;50.894;6.888;2022-11-11T02:34:12;8.20;99.90
4050;DHT22;2039;50.894;6.888;2022-11-11T02:36:39;8.20;99.90
4050;DHT22;2039;50.894;6.888;2022-11-11T02:39:05;8.20;99.90
4050;DHT22;2039;50.894;6.888;2022-11-11T02:41:31;8.20;99.90
4050;DHT22;2039;50.894;6.888;2022-11-11T02:44:15;8.10;99.90
4050;DHT22;2039;50.894;6.888;2022-11-11T02:46:41;8.10;99.90
4050;DHT22;2039;50.894;6.888;2022-11-11T02:49:06;8.20;99.90
4050;DHT22;2039;50.894;6.888;2022-11-11T02:51:32;8.20;99.90
4050;DHT22;2039;50.894;6.888;2022-11-11T02:53:57;8.20;99.90
4050;DHT22;2039;50.894;6.888;2022-11-11T02:56:28;8.10;99.90
4050;DHT22;2039;50.894;6.888;2022-11-11T02:59:12;8.10;99.90
4050;DHT22;2039;50.894;6.888;2022-11-11T03:01:38;8.10;99.90
4050;DHT22;2039;50.894;6.888;2022-11-11T03:04:04;8.00;99.90
4050;DHT22;2039;50.894;6.888;2022-11-11T03:06:30;8.00;99.90
4050;DHT22;2039;50.894;6.888;2022-11-11T03:08:56;8.00;99.90
4050;DHT22;2039;50.894;6.888;2022-11-11T03:11:21;8.00;99.90
4050;DHT22;2039;50.894;6.888;2022-11-11T03:13:54;8.00;99.90
4050;DHT22;2039;50.894;6.888;2022-11-11T03:16:20;8.00;99.90
4050;DHT22;2039;50.894;6.888;2022-11-11T03:19:05;7.90;99.90
4050;DHT22;2039;50.894;6.888;2022-11-11T03:21:30;7.90;99.90
4050;DHT22;2039;50.894;6.888;2022-11-11T03:23:56;7.90;99.90
4050;DHT22;2039;50.894;6.888;2022-11-11T03:26:22;7.80;99.90
4050;DHT22;2039;50.894;6.888;2022-11-11T03:28:47;7.80;99.90
4050;DHT22;2039;50.894;6.888;2022-11-11T03:31:14;7.80;99.90
4050;DHT22;2039;50.894;6.888;2022-11-11T03:33:40;7.80;99.90
4050;DHT22;2039;50.894;6.888;2022-11-11T03:36:05;7.80;99.90
4050;DHT22;2039;50.894;6.888;2022-11-11T03:38:31;7.80;99.90
4050;DHT22;2039;50.894;6.888;2022-11-11T03:40:57;7.80;99.90
4050;DHT22;2039;50.894;6.888;2022-11-11T03:43:28;7.80;99.90
4050;DHT22;2039;50.894;6.888;2022-11-11T03:45:57;7.70;99.90
4050;DHT22;2039;50.894;6.888;2022-11-11T03:48:26;7.70;99.90
4050;DHT22;2039;50.894;6.888;2022-11-11T03:50:52;7.80;99.90
4050;DHT22;2039;50.894;6.888;2022-11-11T03:53:19;7.70;99.90
4050;DHT22;2039;50.894;6.888;2022-11-11T03:55:45;7.70;99.90
4050;DHT22;2039;50.894;6.888;2022-11-11T03:58:11;7.60;99.90
4050;DHT22;2039;50.894;6.888;2022-11-11T04:00:37;7.60;99.90
4050;DHT22;2039;50.894;6.888;2022-11-11T04:05:54;7.60;99.90
4050;DHT22;2039;50.894;6.888;2022-11-11T04:08:46;7.60;99.90
4050;DHT22;2039;50.894;6.888;2022-11-11T04:11:33;7.60;99.90
4050;DHT22;2039;50.894;6.888;2022-11-11T04:14:08;7.60;99.90
4050;DHT22;2039;50.894;6.888;2022-11-11T04:16:52;7.60;99.90
4050;DHT22;2039;50.894;6.888;2022-11-11T04:19:21;7.60;99.90
4050;DHT22;2039;50.894;6.888;2022-11-11T04:22:05;7.60;99.90
4050;DHT22;2039;50.894;6.888;2022-11-11T04:24:31;7.50;99.90
4050;DHT22;2039;50.894;6.888;2022-11-11T04:27:17;7.50;99.90
4050;DHT22;2039;50.894;6.888;2022-11-11T04:29:43;7.50;99.90
4050;DHT22;2039;50.894;6.888;2022-11-11T04:32:13;7.50;99.90
4050;DHT22;2039;50.894;6.888;2022-11-11T04:35:03;7.50;99.90
4050;DHT22;2039;50.894;6.888;2022-11-11T04:37:31;7.50;99.90
4050;DHT22;2039;50.894;6.888;2022-11-11T04:39:57;7.50;99.90
4050;DHT22;2039;50.894;6.888;2022-11-11T04:42:41;7.50;99.90
4050;DHT22;2039;50.894;6.888;2022-11-11T04:45:10;7.50;99.90
4050;DHT22;2039;50.894;6.888;2022-11-11T04:48:06;7.50;99.90
4050;DHT22;2039;50.894;6.888;2022-11-11T04:50:41;7.50;99.90
4050;DHT22;2039;50.894;6.888;2022-11-11T04:53:09;7.50;99.90
4050;DHT22;2039;50.894;6.888;2022-11-11T04:55:36;7.50;99.90
4050;DHT22;2039;50.894;6.888;2022-11-11T04:58:22;7.50;99.90
4050;DHT22;2039;50.894;6.888;2022-11-11T05:00:48;7.50;99.90
4050;DHT22;2039;50.894;6.888;2022-11-11T05:03:15;7.50;99.90
4050;DHT22;2039;50.894;6.888;2022-11-11T05:05:59;7.50;99.90
4050;DHT22;2039;50.894;6.888;2022-11-11T05:08:49;7.50;99.90
4050;DHT22;2039;50.894;6.888;2022-11-11T05:11:32;7.50;99.90
4050;DHT22;2039;50.894;6.888;2022-11-11T05:14:03;7.40;99.90
4050;DHT22;2039;50.894;6.888;2022-11-11T05:16:53;7.40;99.90
4050;DHT22;2039;50.894;6.888;2022-11-11T05:19:38;7.40;99.90
4050;DHT22;2039;50.894;6.888;2022-11-11T05:22:32;7.40;99.90
4050;DHT22;2039;50.894;6.888;2022-11-11T05:24:59;7.40;99.90
4050;DHT22;2039;50.894;6.888;2022-11-11T05:27:43;7.40;99.90
4050;DHT22;2039;50.894;6.888;2022-11-11T05:30:10;7.30;99.90
4050;DHT22;2039;50.894;6.888;2022-11-11T05:32:36;7.30;99.90
4050;DHT22;2039;50.894;6.888;2022-11-11T05:35:07;7.30;99.90
4050;DHT22;2039;50.894;6.888;2022-11-11T05:37:33;7.30;99.90
4050;DHT22;2039;50.894;6.888;2022-11-11T05:39:59;7.30;99.90
4050;DHT22;2039;50.894;6.888;2022-11-11T05:42:26;7.20;99.90
4050;DHT22;2039;50.894;6.888;2022-11-11T05:44:52;7.30;99.90
4050;DHT22;2039;50.894;6.888;2022-11-11T05:47:18;7.30;99.90
4050;DHT22;2039;50.894;6.888;2022-11-11T05:49:44;7.30;99.90
4050;DHT22;2039;50.894;6.888;2022-11-11T05:52:11;7.30;99.90
4050;DHT22;2039;50.894;6.888;2022-11-11T05:54:38;7.30;99.90
4050;DHT22;2039;50.894;6.888;2022-11-11T05:57:04;7.30;99.90
4050;DHT22;2039;50.894;6.888;2022-11-11T05:59:30;7.30;99.90
4050;DHT22;2039;50.894;6.888;2022-11-11T06:01:56;7.30;99.90
4050;DHT22;2039;50.894;6.888;2022-11-11T06:04:21;7.30;99.90
4050;DHT22;2039;50.894;6.888;2022-11-11T06:06:47;7.40;99.90
4050;DHT22;2039;50.894;6.888;2022-11-11T06:09:13;7.40;99.90
4050;DHT22;2039;50.894;6.888;2022-11-11T06:11:39;7.40;99.90
4050;DHT22;2039;50.894;6.888;2022-11-11T06:14:05;7.50;99.90
4050;DHT22;2039;50.894;6.888;2022-11-11T06:16:31;7.40;99.90
4050;DHT22;2039;50.894;6.888;2022-11-11T06:18:57;7.40;99.90
4050;DHT22;2039;50.894;6.888;2022-11-11T06:21:25;7.40;99.90
4050;DHT22;2039;50.894;6.888;2022-11-11T06:23:51;7.50;99.90
4050;DHT22;2039;50.894;6.888;2022-11-11T06:26:16;7.50;99.90
4050;DHT22;2039;50.894;6.888;2022-11-11T06:31:16;7.50;99.90
4050;DHT22;2039;50.894;6.888;2022-11-11T06:33:42;7.50;99.90
4050;DHT22;2039;50.894;6.888;2022-11-11T06:36:10;7.50;99.90
4050;DHT22;2039;50.894;6.888;2022-11-11T06:38:38;7.50;99.90
4050;DHT22;2039;50.894;6.888;2022-11-11T06:41:04;7.60;99.90
4050;DHT22;2039;50.894;6.888;2022-11-11T06:43:30;7.50;99.90
4050;DHT22;2039;50.894;6.888;2022-11-11T06:45:56;7.40;99.90
4050;DHT22;2039;50.894;6.888;2022-11-11T06:48:26;7.40;99.90
4050;DHT22;2039;50.894;6.888;2022-11-11T06:50:52;7.40;99.90
4050;DHT22;2039;50.894;6.888;2022-11-11T06:53:19;7.40;99.90
4050;DHT22;2039;50.894;6.888;2022-11-11T06:55:46;7.40;99.90
4050;DHT22;2039;50.894;6.888;2022-11-11T06:58:17;7.40;99.90
4050;DHT22;2039;50.894;6.888;2022-11-11T07:00:44;7.50;99.90
4050;DHT22;2039;50.894;6.888;2022-11-11T07:03:12;7.40;99.90
4050;DHT22;2039;50.894;6.888;2022-11-11T07:05:38;7.40;99.90
4050;DHT22;2039;50.894;6.888;2022-11-11T07:08:06;7.40;99.90
4050;DHT22;2039;50.894;6.888;2022-11-11T07:10:34;7.40;99.90
4050;DHT22;2039;50.894;6.888;2022-11-11T07:13:00;7.40;99.90
4050;DHT22;2039;50.894;6.888;2022-11-11T07:15:26;7.30;99.90
4050;DHT22;2039;50.894;6.888;2022-11-11T07:17:52;7.30;99.90
4050;DHT22;2039;50.894;6.888;2022-11-11T07:20:18;7.40;99.90
4050;DHT22;2039;50.894;6.888;2022-11-11T07:22:44;7.40;99.90
4050;DHT22;2039;50.894;6.888;2022-11-11T07:25:10;7.40;99.90
4050;DHT22;2039;50.894;6.888;2022-11-11T07:27:39;7.40;99.90
4050;DHT22;2039;50.894;6.888;2022-11-11T07:30:06;7.40;99.90
4050;DHT22;2039;50.894;6.888;2022-11-11T07:32:32;7.50;99.90
4050;DHT22;2039;50.894;6.888;2022-11-11T07:34:58;7.50;99.90
4050;DHT22;2039;50.894;6.888;2022-11-11T07:37:24;7.50;99.90
4050;DHT22;2039;50.894;6.888;2022-11-11T07:39:50;7.50;99.90
4050;DHT22;2039;50.894;6.888;2022-11-11T07:42:16;7.60;99.90
4050;DHT22;2039;50.894;6.888;2022-11-11T07:44:41;7.50;99.90
4050;DHT22;2039;50.894;6.888;2022-11-11T07:47:07;7.60;99.90
4050;DHT22;2039;50.894;6.888;2022-11-11T07:49:34;7.70;99.90
4050;DHT22;2039;50.894;6.888;2022-11-11T07:52:00;7.80;99.90
4050;DHT22;2039;50.894;6.888;2022-11-11T07:54:25;7.80;99.90
4050;DHT22;2039;50.894;6.888;2022-11-11T07:56:51;7.80;99.90
4050;DHT22;2039;50.894;6.888;2022-11-11T07:59:17;7.80;99.90
4050;DHT22;2039;50.894;6.888;2022-11-11T08:01:43;7.90;99.90
4050;DHT22;2039;50.894;6.888;2022-11-11T08:04:08;8.00;99.90
4050;DHT22;2039;50.894;6.888;2022-11-11T08:06:34;8.00;99.90
4050;DHT22;2039;50.894;6.888;2022-11-11T08:09:00;8.10;99.90
4050;DHT22;2039;50.894;6.888;2022-11-11T08:11:25;8.10;99.90
4050;DHT22;2039;50.894;6.888;2022-11-11T08:14:09;8.20;99.90
4050;DHT22;2039;50.894;6.888;2022-11-11T08:16:35;8.20;99.90
4050;DHT22;2039;50.894;6.888;2022-11-11T08:19:04;8.30;99.90
4050;DHT22;2039;50.894;6.888;2022-11-11T08:21:30;8.30;99.90
4050;DHT22;2039;50.894;6.888;2022-11-11T08:23:58;8.30;99.90
4050;DHT22;2039;50.894;6.888;2022-11-11T08:26:27;8.30;99.90
4050;DHT22;2039;50.894;6.888;2022-11-11T08:28:53;8.40;99.90
4050;DHT22;2039;50.894;6.888;2022-11-11T08:31:19;8.40;99.90
4050;DHT22;2039;50.894;6.888;2022-11-11T08:33:44;8.50;99.90
4050;DHT22;2039;50.894;6.888;2022-11-11T08:36:11;8.50;99.90
4050;DHT22;2039;50.894;6.888;2022-11-11T08:38:37;8.50;99.90
4050;DHT22;2039;50.894;6.888;2022-11-11T08:41:05;8.50;99.90
4050;DHT22;2039;50.894;6.888;2022-11-11T08:43:35;8.60;99.90
4050;DHT22;2039;50.894;6.888;2022-11-11T08:46:02;8.70;99.90
4050;DHT22;2039;50.894;6.888;2022-11-11T08:48:31;8.70;99.90
4050;DHT22;2039;50.894;6.888;2022-11-11T08:50:57;8.80;99.90
4050;DHT22;2039;50.894;6.888;2022-11-11T08:53:24;8.80;99.90
4050;DHT22;2039;50.894;6.888;2022-11-11T08:55:50;8.80;99.90
4050;DHT22;2039;50.894;6.888;2022-11-11T08:58:16;8.90;99.90
4050;DHT22;2039;50.894;6.888;2022-11-11T09:00:41;8.90;99.90
4050;DHT22;2039;50.894;6.888;2022-11-11T09:03:10;9.00;99.90
4050;DHT22;2039;50.894;6.888;2022-11-11T09:05:39;9.00;99.90
4050;DHT22;2039;50.894;6.888;2022-11-11T09:08:06;9.10;99.90
4050;DHT22;2039;50.894;6.888;2022-11-11T09:10:33;9.00;99.90
4050;DHT22;2039;50.894;6.888;2022-11-11T09:13:00;9.10;99.90
4050;DHT22;2039;50.894;6.888;2022-11-11T09:15:27;9.10;99.90
4050;DHT22;2039;50.894;6.888;2022-11-11T09:17:53;9.10;99.90
4050;DHT22;2039;50.894;6.888;2022-11-11T09:20:19;9.20;99.90
4050;DHT22;2039;50.894;6.888;2022-11-11T09:22:45;9.30;99.90
4050;DHT22;2039;50.894;6.888;2022-11-11T09:25:12;9.30;99.90
4050;DHT22;2039;50.894;6.888;2022-11-11T09:27:38;9.30;99.90
4050;DHT22;2039;50.894;6.888;2022-11-11T09:30:05;9.40;99.90
4050;DHT22;2039;50.894;6.888;2022-11-11T09:32:31;9.40;99.90
4050;DHT22;2039;50.894;6.888;2022-11-11T09:34:56;9.50;99.90
4050;DHT22;2039;50.894;6.888;2022-11-11T09:37:23;9.60;99.90
4050;DHT22;2039;50.894;6.888;2022-11-11T09:39:48;9.60;99.90
4050;DHT22;2039;50.894;6.888;2022-11-11T09:42:39;9.70;99.90
4050;DHT22;2039;50.894;6.888;2022-11-11T09:50:29;10.00;99.90
4050;DHT22;2039;50.894;6.888;2022-11-11T09:55:40;10.10;99.90
4050;DHT22;2039;50.894;6.888;2022-11-11T09:58:15;10.10;99.90
4050;DHT22;2039;50.894;6.888;2022-11-11T10:00:45;10.20;99.90
4050;DHT22;2039;50.894;6.888;2022-11-11T10:03:19;10.20;99.90
4050;DHT22;2039;50.894;6.888;2022-11-11T10:05:59;10.30;99.90
4050;DHT22;2039;50.894;6.888;2022-11-11T10:08:39;10.40;99.90
4050;DHT22;2039;50.894;6.888;2022-11-11T10:11:15;10.40;99.90
4050;DHT22;2039;50.894;6.888;2022-11-11T10:13:44;10.50;99.90
4050;DHT22;2039;50.894;6.888;2022-11-11T10:18:50;10.60;99.90
4050;DHT22;2039;50.894;6.888;2022-11-11T10:21:40;10.70;99.90
4050;DHT22;2039;50.894;6.888;2022-11-11T10:24:15;10.70;99.90
4050;DHT22;2039;50.894;6.888;2022-11-11T10:26:44;10.70;99.90
4050;DHT22;2039;50.894;6.888;2022-11-11T10:29:20;10.80;99.90
4050;DHT22;2039;50.894;6.888;2022-11-11T10:31:57;10.90;99.90
4050;DHT22;2039;50.894;6.888;2022-11-11T10:34:27;11.00;99.90
4050;DHT22;2039;50.894;6.888;2022-11-11T10:36:57;11.10;99.90
4050;DHT22;2039;50.894;6.888;2022-11-11T10:39:30;11.10;99.90
4050;DHT22;2039;50.894;6.888;2022-11-11T10:41:58;11.30;99.90
4050;DHT22;2039;50.894;6.888;2022-11-11T10:44:26;11.50;99.90
4050;DHT22;2039;50.894;6.888;2022-11-11T10:47:13;11.50;99.90
4050;DHT22;2039;50.894;6.888;2022-11-11T10:49:51;11.50;99.90
4050;DHT22;2039;50.894;6.888;2022-11-11T10:52:31;11.50;99.90
4050;DHT22;2039;50.894;6.888;2022-11-11T10:55:02;11.60;99.90
4050;DHT22;2039;50.894;6.888;2022-11-11T11:00:12;11.90;99.90
4050;DHT22;2039;50.894;6.888;2022-11-11T11:05:24;12.20;99.90
4050;DHT22;2039;50.894;6.888;2022-11-11T11:07:55;12.30;99.90
4050;DHT22;2039;50.894;6.888;2022-11-11T11:10:40;12.40;99.90
4050;DHT22;2039;50.894;6.888;2022-11-11T11:13:35;12.50;99.90
4050;DHT22;2039;50.894;6.888;2022-11-11T11:16:11;12.70;99.90
4050;DHT22;2039;50.894;6.888;2022-11-11T11:18:38;12.90;99.90
4050;DHT22;2039;50.894;6.888;2022-11-11T11:21:05;13.00;99.90
4050;DHT22;2039;50.894;6.888;2022-11-11T11:26:00;13.00;99.90
4050;DHT22;2039;50.894;6.888;2022-11-11T11:28:27;13.20;99.90
4050;DHT22;2039;50.894;6.888;2022-11-11T11:31:23;13.30;99.90
4050;DHT22;2039;50.894;6.888;2022-11-11T11:34:01;13.30;99.90
4050;DHT22;2039;50.894;6.888;2022-11-11T11:36:27;13.40;99.90
4050;DHT22;2039;50.894;6.888;2022-11-11T11:38:52;13.40;99.90
4050;DHT22;2039;50.894;6.888;2022-11-11T11:41:41;13.40;99.90
4050;DHT22;2039;50.894;6.888;2022-11-11T11:44:27;13.50;99.90
4050;DHT22;2039;50.894;6.888;2022-11-11T11:47:02;13.30;99.90
4050;DHT22;2039;50.894;6.888;2022-11-11T11:52:27;13.40;99.90
4050;DHT22;2039;50.894;6.888;2022-11-11T11:55:27;13.50;99.90
4050;DHT22;2039;50.894;6.888;2022-11-11T12:21:21;13.60;99.90
4050;DHT22;2039;50.894;6.888;2022-11-11T12:26:32;13.60;99.90
4050;DHT22;2039;50.894;6.888;2022-11-11T12:37:08;13.60;98.60
4050;DHT22;2039;50.894;6.888;2022-11-11T12:39:57;13.60;96.90
4050;DHT22;2039;50.894;6.888;2022-11-11T12:45:22;13.60;95.40
4050;DHT22;2039;50.894;6.888;2022-11-11T12:51:54;13.60;92.90
4050;DHT22;2039;50.894;6.888;2022-11-11T12:54:12;13.70;95.20
4050;DHT22;2039;50.894;6.888;2022-11-11T13:05:58;14.00;95.50
4050;DHT22;2039;50.894;6.888;2022-11-11T13:16:15;14.00;85.40
4050;DHT22;2039;50.894;6.888;2022-11-11T13:21:15;14.00;80.50
4050;DHT22;2039;50.894;6.888;2022-11-11T13:23:42;14.00;79.80
4050;DHT22;2039;50.894;6.888;2022-11-11T13:26:58;14.00;77.40
4050;DHT22;2039;50.894;6.888;2022-11-11T13:31:53;14.00;71.60
4050;DHT22;2039;50.894;6.888;2022-11-11T13:34:20;14.00;67.20
4050;DHT22;2039;50.894;6.888;2022-11-11T13:36:52;14.10;66.10
4050;DHT22;2039;50.894;6.888;2022-11-11T13:39:47;14.10;67.40
4050;DHT22;2039;50.894;6.888;2022-11-11T13:42:20;14.10;64.20
4050;DHT22;2039;50.894;6.888;2022-11-11T13:44:53;14.10;61.00
4050;DHT22;2039;50.894;6.888;2022-11-11T13:47:26;14.10;59.30
4050;DHT22;2039;50.894;6.888;2022-11-11T13:50:27;14.20;64.10
4050;DHT22;2039;50.894;6.888;2022-11-11T13:53:11;14.20;59.30
4050;DHT22;2039;50.894;6.888;2022-11-11T13:55:42;14.30;57.10
4050;DHT22;2039;50.894;6.888;2022-11-11T13:58:27;14.30;57.40
4050;DHT22;2039;50.894;6.888;2022-11-11T14:01:03;14.40;51.40
4050;DHT22;2039;50.894;6.888;2022-11-11T14:03:34;14.40;50.90
4050;DHT22;2039;50.894;6.888;2022-11-11T14:13:54;14.50;43.30
4050;DHT22;2039;50.894;6.888;2022-11-11T14:24:40;14.40;45.10
4050;DHT22;2039;50.894;6.888;2022-11-11T14:29:53;14.40;45.40
4050;DHT22;2039;50.894;6.888;2022-11-11T14:40:22;14.30;49.60
4050;DHT22;2039;50.894;6.888;2022-11-11T14:42:48;14.30;49.50
4050;DHT22;2039;50.894;6.888;2022-11-11T14:47:49;14.30;47.00
4050;DHT22;2039;50.894;6.888;2022-11-11T14:53:24;14.20;47.00
4050;DHT22;2039;50.894;6.888;2022-11-11T14:55:55;14.10;54.10
4050;DHT22;2039;50.894;6.888;2022-11-11T14:58:24;14.10;50.80
4050;DHT22;2039;50.894;6.888;2022-11-11T15:01:17;14.00;52.30
4050;DHT22;2039;50.894;6.888;2022-11-11T15:03:48;14.00;53.90
4050;DHT22;2039;50.894;6.888;2022-11-11T15:06:42;13.90;55.80
4050;DHT22;2039;50.894;6.888;2022-11-11T15:20:33;13.50;76.00
4050;DHT22;2039;50.894;6.888;2022-11-11T15:36:29;12.90;98.20
4050;DHT22;2039;50.894;6.888;2022-11-11T15:38:57;12.80;99.90
4050;DHT22;2039;50.894;6.888;2022-11-11T15:41:26;12.80;99.90
4050;DHT22;2039;50.894;6.888;2022-11-11T15:43:53;12.70;99.90
4050;DHT22;2039;50.894;6.888;2022-11-11T15:46:27;12.70;99.90
4050;DHT22;2039;50.894;6.888;2022-11-11T15:48:53;12.70;99.90
4050;DHT22;2039;50.894;6.888;2022-11-11T15:51:28;12.70;99.90
4050;DHT22;2039;50.894;6.888;2022-11-11T15:54:17;12.70;99.90
4050;DHT22;2039;50.894;6.888;2022-11-11T15:56:43;12.60;99.90
4050;DHT22;2039;50.894;6.888;2022-11-11T15:59:23;12.60;99.90
4050;DHT22;2039;50.894;6.888;2022-11-11T16:01:52;12.50;99.90
4050;DHT22;2039;50.894;6.888;2022-11-11T16:04:19;12.50;99.90
4050;DHT22;2039;50.894;6.888;2022-11-11T16:06:47;12.40;99.90
4050;DHT22;2039;50.894;6.888;2022-11-11T16:09:22;12.30;99.90
4050;DHT22;2039;50.894;6.888;2022-11-11T16:11:50;12.30;99.90
4050;DHT22;2039;50.894;6.888;2022-11-11T16:14:44;12.20;99.90
4050;DHT22;2039;50.894;6.888;2022-11-11T16:17:12;12.10;99.90
4050;DHT22;2039;50.894;6.888;2022-11-11T16:19:39;12.00;99.90
4050;DHT22;2039;50.894;6.888;2022-11-11T16:22:26;11.90;99.90
4050;DHT22;2039;50.894;6.888;2022-11-11T16:24:54;11.80;99.90
4050;DHT22;2039;50.894;6.888;2022-11-11T16:27:25;11.70;99.90
4050;DHT22;2039;50.894;6.888;2022-11-11T16:29:52;11.60;99.90
4050;DHT22;2039;50.894;6.888;2022-11-11T16:34:53;11.60;99.90
4050;DHT22;2039;50.894;6.888;2022-11-11T16:37:20;11.50;99.90
4050;DHT22;2039;50.894;6.888;2022-11-11T16:39:46;11.40;99.90
4050;DHT22;2039;50.894;6.888;2022-11-11T16:42:27;11.30;99.90
4050;DHT22;2039;50.894;6.888;2022-11-11T16:45:00;11.30;99.90
4050;DHT22;2039;50.894;6.888;2022-11-11T16:50:05;11.20;99.90
4050;DHT22;2039;50.894;6.888;2022-11-11T16:52:54;11.20;99.90
4050;DHT22;2039;50.894;6.888;2022-11-11T16:55:34;11.20;99.90
4050;DHT22;2039;50.894;6.888;2022-11-11T16:58:12;11.10;99.90
4050;DHT22;2039;50.894;6.888;2022-11-11T17:00:40;11.10;99.90
4050;DHT22;2039;50.894;6.888;2022-11-11T17:08:37;11.00;99.90
4050;DHT22;2039;50.894;6.888;2022-11-11T17:11:05;11.00;99.90
4050;DHT22;2039;50.894;6.888;2022-11-11T17:13:34;10.90;99.90
4050;DHT22;2039;50.894;6.888;2022-11-11T17:16:03;10.90;99.90
4050;DHT22;2039;50.894;6.888;2022-11-11T17:18:38;10.80;99.90
4050;DHT22;2039;50.894;6.888;2022-11-11T17:21:05;10.90;99.90
4050;DHT22;2039;50.894;6.888;2022-11-11T17:23:31;10.90;99.90
4050;DHT22;2039;50.894;6.888;2022-11-11T17:25:58;10.80;99.90
4050;DHT22;2039;50.894;6.888;2022-11-11T17:28:26;10.80;99.90
4050;DHT22;2039;50.894;6.888;2022-11-11T17:30:52;10.80;99.90
4050;DHT22;2039;50.894;6.888;2022-11-11T17:33:18;10.80;99.90
4050;DHT22;2039;50.894;6.888;2022-11-11T17:35:50;10.80;99.90
4050;DHT22;2039;50.894;6.888;2022-11-11T17:38:16;10.80;99.90
4050;DHT22;2039;50.894;6.888;2022-11-11T17:40:46;10.80;99.90
4050;DHT22;2039;50.894;6.888;2022-11-11T17:43:12;10.80;99.90
4050;DHT22;2039;50.894;6.888;2022-11-11T17:45:38;10.70;99.90
4050;DHT22;2039;50.894;6.888;2022-11-11T17:48:05;10.70;99.90
4050;DHT22;2039;50.894;6.888;2022-11-11T17:50:35;10.70;99.90
4050;DHT22;2039;50.894;6.888;2022-11-11T17:53:01;10.70;99.90
4050;DHT22;2039;50.894;6.888;2022-11-11T17:55:27;10.70;99.90
4050;DHT22;2039;50.894;6.888;2022-11-11T17:57:56;10.70;99.90
4050;DHT22;2039;50.894;6.888;2022-11-11T18:00:26;10.60;99.90
4050;DHT22;2039;50.894;6.888;2022-11-11T18:02:52;10.60;99.90
4050;DHT22;2039;50.894;6.888;2022-11-11T18:05:18;10.60;99.90
4050;DHT22;2039;50.894;6.888;2022-11-11T18:07:44;10.60;99.90
4050;DHT22;2039;50.894;6.888;2022-11-11T18:10:12;10.60;99.90
4050;DHT22;2039;50.894;6.888;2022-11-11T18:12:40;10.60;99.90
4050;DHT22;2039;50.894;6.888;2022-11-11T18:15:07;10.60;99.90
4050;DHT22;2039;50.894;6.888;2022-11-11T18:17:34;10.40;99.90
4050;DHT22;2039;50.894;6.888;2022-11-11T18:19:59;10.50;99.90
4050;DHT22;2039;50.894;6.888;2022-11-11T18:22:25;10.40;99.90
4050;DHT22;2039;50.894;6.888;2022-11-11T18:24:51;10.30;99.90
4050;DHT22;2039;50.894;6.888;2022-11-11T18:27:17;10.30;99.90
4050;DHT22;2039;50.894;6.888;2022-11-11T18:29:43;10.20;99.90
4050;DHT22;2039;50.894;6.888;2022-11-11T18:32:08;10.20;99.90
4050;DHT22;2039;50.894;6.888;2022-11-11T18:34:35;10.10;99.90
4050;DHT22;2039;50.894;6.888;2022-11-11T18:37:01;10.00;99.90
4050;DHT22;2039;50.894;6.888;2022-11-11T18:39:30;10.00;99.90
4050;DHT22;2039;50.894;6.888;2022-11-11T18:41:56;9.90;99.90
4050;DHT22;2039;50.894;6.888;2022-11-11T18:44:25;10.00;99.90
4050;DHT22;2039;50.894;6.888;2022-11-11T18:46:50;9.90;99.90
4050;DHT22;2039;50.894;6.888;2022-11-11T18:49:16;9.90;99.90
4050;DHT22;2039;50.894;6.888;2022-11-11T18:51:42;10.00;99.90
4050;DHT22;2039;50.894;6.888;2022-11-11T18:54:08;10.00;99.90
4050;DHT22;2039;50.894;6.888;2022-11-11T18:56:37;10.00;99.90
4050;DHT22;2039;50.894;6.888;2022-11-11T18:59:05;9.90;99.90
4050;DHT22;2039;50.894;6.888;2022-11-11T19:01:32;9.80;99.90
4050;DHT22;2039;50.894;6.888;2022-11-11T19:04:01;9.80;99.90
4050;DHT22;2039;50.894;6.888;2022-11-11T19:06:30;9.80;99.90
4050;DHT22;2039;50.894;6.888;2022-11-11T19:09:07;9.80;99.90
4050;DHT22;2039;50.894;6.888;2022-11-11T19:11:35;9.70;99.90
4050;DHT22;2039;50.894;6.888;2022-11-11T19:14:03;9.80;99.90
4050;DHT22;2039;50.894;6.888;2022-11-11T19:16:32;9.70;99.90
4050;DHT22;2039;50.894;6.888;2022-11-11T19:18:58;9.60;99.90
4050;DHT22;2039;50.894;6.888;2022-11-11T19:21:27;9.70;99.90